Time;durP1;ratioP1;P1;durP2;ratioP2;P2;SDS_P1;SDS_P2;PMS_P1;PMS_P2;Temp;Humidity;BMP_temperature;BMP_pressure;BME280_temperature;BME280_humidity;BME280_pressure;Samples;Min_cycle;Max_cycle;Signal;HPM_P1;HPM_P2
2022/06/20 00:01:59;;;;;;;3.05;1.98;;;13.50;62.70;;;;;;5012308;28;20196;-57
2022/06/20 00:04:30;;;;;;;3.45;1.90;;;13.50;62.60;;;;;;5013619;28;20197;-56
2022/06/20 00:07:01;;;;;;;3.22;2.20;;;13.50;62.60;;;;;;5013076;28;20200;-58
2022/06/20 00:09:31;;;;;;;3.28;1.90;;;13.50;63.50;;;;;;5013007;28;20228;-57
2022/06/20 00:12:04;;;;;;;2.88;2.20;;;13.50;62.70;;;;;;5012896;28;20185;-57
2022/06/20 00:14:35;;;;;;;3.53;2.45;;;13.60;63.50;;;;;;5013701;28;20200;-57
2022/06/20 00:17:11;;;;;;;2.78;2.00;;;13.60;62.90;;;;;;5012542;28;20661;-55
2022/06/20 00:19:42;;;;;;;2.65;2.25;;;13.60;63.00;;;;;;5013090;28;20236;-57
2022/06/20 00:22:13;;;;;;;2.75;2.13;;;13.60;63.00;;;;;;5013011;28;20716;-57
2022/06/20 00:24:44;;;;;;;2.38;2.05;;;13.60;63.00;;;;;;5011922;28;20200;-58
2022/06/20 00:27:16;;;;;;;3.55;2.10;;;13.60;63.70;;;;;;5012332;28;20216;-58
2022/06/20 00:29:53;;;;;;;3.28;1.95;;;13.70;62.90;;;;;;5012700;28;20220;-57
2022/06/20 00:32:24;;;;;;;3.15;2.13;;;13.70;62.90;;;;;;5012578;28;20199;-58
2022/06/20 00:34:55;;;;;;;3.40;2.55;;;13.70;62.80;;;;;;5012455;28;20208;-56
2022/06/20 00:37:26;;;;;;;2.78;2.42;;;13.70;62.70;;;;;;5012376;28;20201;-58
2022/06/20 00:39:57;;;;;;;3.25;2.08;;;13.70;63.10;;;;;;5012351;28;20229;-58
2022/06/20 00:42:30;;;;;;;2.22;1.98;;;13.70;63.30;;;;;;5012612;28;20687;-57
2022/06/20 00:45:03;;;;;;;2.72;2.00;;;13.80;63.30;;;;;;5012005;28;20676;-57
2022/06/20 00:47:36;;;;;;;3.15;2.13;;;13.80;63.20;;;;;;5012265;28;20193;-56
2022/06/20 00:50:12;;;;;;;3.08;2.17;;;13.80;63.10;;;;;;5013049;28;20701;-57
2022/06/20 00:52:47;;;;;;;3.38;2.25;;;13.80;63.10;;;;;;5012118;28;20188;-57
2022/06/20 00:55:21;;;;;;;2.85;2.20;;;13.80;63.00;;;;;;5012532;28;20197;-57
2022/06/20 00:57:57;;;;;;;3.28;2.22;;;13.80;63.00;;;;;;5011432;28;20196;-57
2022/06/20 01:00:33;;;;;;;3.83;2.10;;;13.90;63.00;;;;;;5012307;28;20223;-57
2022/06/20 01:03:11;;;;;;;3.17;2.20;;;13.90;63.00;;;;;;5011270;28;20196;-57
2022/06/20 01:05:47;;;;;;;3.63;2.30;;;13.90;62.90;;;;;;5011214;28;20192;-57
2022/06/20 01:08:22;;;;;;;3.75;2.33;;;13.90;62.80;;;;;;5012047;28;20224;-57
2022/06/20 01:11:00;;;;;;;2.65;2.10;;;13.90;62.80;;;;;;5012751;28;20193;-58
2022/06/20 01:13:33;;;;;;;3.88;2.10;;;13.90;62.70;;;;;;5011953;28;20668;-58
2022/06/20 01:16:09;;;;;;;2.97;2.10;;;13.90;62.70;;;;;;5012513;28;20670;-58
2022/06/20 01:18:41;;;;;;;3.20;2.30;;;14.00;62.70;;;;;;5011416;28;20217;-56
2022/06/20 01:21:16;;;;;;;2.97;2.03;;;14.00;62.70;;;;;;5012201;28;20216;-57
2022/06/20 01:23:54;;;;;;;3.92;2.58;;;14.00;62.70;;;;;;5012067;28;20203;-57
2022/06/20 01:26:38;;;;;;;2.28;1.98;;;14.00;62.70;;;;;;5011656;28;20652;-57
2022/06/20 01:29:13;;;;;;;2.22;1.67;;;14.00;62.80;;;;;;4992216;28;20564;-57
2022/06/20 01:31:47;;;;;;;2.65;2.00;;;14.00;62.80;;;;;;4993563;28;20205;-58
2022/06/20 01:34:20;;;;;;;3.03;2.00;;;14.10;62.90;;;;;;5010377;28;20203;-57
2022/06/20 01:39:42;;;;;;;2.83;2.05;;;14.10;62.90;;;;;;4992386;28;20232;-57
2022/06/20 01:42:19;;;;;;;2.83;1.95;;;14.10;62.90;;;;;;4997300;28;20204;-58
2022/06/20 01:44:54;;;;;;;2.60;2.00;;;14.10;62.90;;;;;;5004352;28;20277;-57
2022/06/20 01:47:25;;;;;;;2.35;1.70;;;14.10;62.90;;;;;;4997988;28;20197;-57
2022/06/20 01:50:03;;;;;;;2.05;1.75;;;14.10;63.10;;;;;;5011200;28;20216;-58
2022/06/20 01:52:38;;;;;;;3.10;1.90;;;14.10;63.10;;;;;;5010554;28;20201;-57
2022/06/20 01:55:13;;;;;;;2.15;1.95;;;14.10;63.00;;;;;;5010902;28;20577;-57
2022/06/20 01:57:46;;;;;;;3.85;2.17;;;14.10;63.00;;;;;;5011494;28;20208;-56
2022/06/20 02:00:22;;;;;;;3.28;2.13;;;14.20;63.00;;;;;;5011644;28;20232;-57
2022/06/20 02:02:54;;;;;;;3.33;2.10;;;14.20;63.00;;;;;;5011318;28;20218;-55
2022/06/20 02:05:28;;;;;;;3.72;2.10;;;14.20;62.90;;;;;;5011730;28;20220;-58
2022/06/20 02:08:03;;;;;;;2.30;1.60;;;14.20;62.90;;;;;;5011513;28;20209;-58
2022/06/20 02:10:38;;;;;;;3.33;2.00;;;14.20;62.90;;;;;;5011655;28;20202;-57
2022/06/20 02:13:10;;;;;;;3.10;2.38;;;14.20;62.90;;;;;;5011365;28;20196;-57
2022/06/20 02:15:43;;;;;;;3.13;1.80;;;14.20;62.90;;;;;;5011914;28;20205;-55
2022/06/20 02:18:15;;;;;;;2.55;1.63;;;14.20;62.90;;;;;;5011501;28;20224;-55
2022/06/20 02:20:50;;;;;;;3.00;2.10;;;14.20;63.00;;;;;;5011810;28;20197;-57
2022/06/20 02:23:27;;;;;;;3.28;1.95;;;14.30;63.10;;;;;;5011588;28;20196;-57
2022/06/20 02:26:01;;;;;;;2.25;1.60;;;14.30;63.20;;;;;;5011525;28;20200;-57
2022/06/20 02:28:38;;;;;;;2.20;1.73;;;14.30;63.10;;;;;;5011588;28;20228;-57
2022/06/20 02:31:11;;;;;;;3.80;2.58;;;14.30;63.90;;;;;;5006411;28;20689;-57
2022/06/20 02:33:42;;;;;;;2.65;2.00;;;14.30;63.10;;;;;;5010909;28;20205;-58
2022/06/20 02:36:13;;;;;;;2.38;2.00;;;14.30;62.90;;;;;;5005119;28;20353;-57
2022/06/20 02:38:43;;;;;;;2.08;1.80;;;14.30;62.80;;;;;;5010625;28;20560;-57
2022/06/20 02:41:16;;;;;;;2.45;1.95;;;14.40;63.70;;;;;;5011457;28;20193;-58
2022/06/20 02:43:50;;;;;;;3.40;2.00;;;14.30;62.80;;;;;;5010409;28;20208;-58
2022/06/20 02:46:27;;;;;;;2.08;1.80;;;14.40;62.80;;;;;;5011848;28;20188;-58
2022/06/20 02:48:59;;;;;;;2.28;1.90;;;14.30;62.70;;;;;;5001651;28;20209;-56
2022/06/20 02:51:35;;;;;;;2.63;1.98;;;14.40;62.80;;;;;;5014734;28;20196;-58
2022/06/20 02:54:08;;;;;;;3.47;2.13;;;14.40;62.80;;;;;;5014822;28;20829;-57
2022/06/20 02:56:45;;;;;;;2.22;1.90;;;14.40;62.80;;;;;;5014369;28;20197;-57
2022/06/20 02:59:20;;;;;;;2.88;2.15;;;14.40;62.80;;;;;;5014119;28;20264;-58
2022/06/20 03:02:00;;;;;;;2.10;1.75;;;14.40;62.80;;;;;;5014075;28;20212;-57
2022/06/20 03:04:34;;;;;;;1.98;1.80;;;14.40;62.70;;;;;;5014416;28;20705;-57
2022/06/20 03:07:07;;;;;;;2.63;2.05;;;14.50;62.70;;;;;;5014721;28;20208;-57
2022/06/20 03:09:41;;;;;;;2.00;1.80;;;14.50;62.70;;;;;;5014180;28;20205;-58
2022/06/20 03:12:14;;;;;;;4.07;2.40;;;14.50;62.80;;;;;;5014142;28;20203;-58
2022/06/20 03:14:48;;;;;;;2.53;1.92;;;14.50;62.90;;;;;;5013323;28;20226;-58
2022/06/20 03:17:23;;;;;;;1.98;1.55;;;14.50;63.20;;;;;;5014092;28;20224;-58
2022/06/20 03:20:02;;;;;;;2.55;1.85;;;14.50;63.30;;;;;;5013836;28;20224;-58
2022/06/20 03:22:38;;;;;;;2.90;2.17;;;14.50;63.10;;;;;;5013823;28;20211;-57
2022/06/20 03:25:13;;;;;;;2.30;1.80;;;14.50;63.00;;;;;;5013298;28;20208;-57
2022/06/20 03:27:45;;;;;;;1.90;1.70;;;14.50;63.00;;;;;;5014204;28;20200;-57
2022/06/20 03:30:28;;;;;;;2.92;2.00;;;14.50;62.90;;;;;;5013906;28;20217;-57
2022/06/20 03:33:02;;;;;;;3.03;2.22;;;14.50;62.90;;;;;;5012925;28;20197;-59
2022/06/20 03:35:34;;;;;;;2.30;2.10;;;14.50;62.80;;;;;;5013942;28;20613;-58
2022/06/20 03:38:08;;;;;;;2.08;1.67;;;14.60;62.80;;;;;;5013578;28;20201;-57
2022/06/20 03:40:40;;;;;;;2.42;1.73;;;14.60;62.80;;;;;;5012623;28;20224;-58
2022/06/20 03:43:14;;;;;;;2.45;1.95;;;14.60;62.70;;;;;;5014490;28;20350;-58
2022/06/20 03:45:48;;;;;;;2.40;1.83;;;14.60;62.70;;;;;;5014188;28;20192;-58
2022/06/20 03:48:23;;;;;;;2.72;1.92;;;14.50;62.60;;;;;;5014048;28;20193;-58
2022/06/20 03:50:57;;;;;;;2.60;1.92;;;14.60;62.60;;;;;;5014331;28;20240;-56
2022/06/20 03:53:34;;;;;;;2.75;1.83;;;14.60;62.50;;;;;;5014581;28;20661;-58
2022/06/20 03:56:11;;;;;;;3.13;2.00;;;14.60;62.60;;;;;;5013534;28;20193;-58
2022/06/20 03:58:46;;;;;;;3.50;2.20;;;14.60;62.50;;;;;;5012962;28;20216;-56
2022/06/20 04:01:25;;;;;;;2.53;1.95;;;14.60;62.50;;;;;;5013991;28;20558;-56
2022/06/20 04:04:02;;;;;;;1.67;1.58;;;14.60;62.50;;;;;;5013810;28;20197;-58
2022/06/20 04:06:39;;;;;;;2.63;2.05;;;14.60;62.50;;;;;;5009012;28;21035;-57
2022/06/20 04:12:08;;;;;;;2.20;2.00;;;14.60;62.50;;;;;;5010851;28;20208;-57
2022/06/20 04:14:46;;;;;;;2.13;1.80;;;14.60;62.50;;;;;;4993192;28;20197;-57
2022/06/20 04:20:32;;;;;;;2.05;1.55;;;14.60;62.50;;;;;;5013769;28;20235;-56
2022/06/20 04:23:09;;;;;;;1.83;1.70;;;14.60;62.50;;;;;;4993664;28;20198;-57
2022/06/20 04:25:47;;;;;;;2.92;1.80;;;14.60;62.50;;;;;;5007071;28;20192;-58
2022/06/20 04:28:24;;;;;;;2.25;1.70;;;14.60;62.70;;;;;;5012627;28;20251;-55
2022/06/20 04:30:59;;;;;;;2.65;1.90;;;14.60;62.70;;;;;;5012957;28;20740;-55
2022/06/20 04:33:35;;;;;;;2.45;2.08;;;14.60;62.60;;;;;;5012511;28;20192;-55
2022/06/20 04:36:20;;;;;;;2.65;1.90;;;14.60;62.50;;;;;;5013018;28;20185;-52
2022/06/20 04:38:57;;;;;;;2.00;1.80;;;14.60;62.50;;;;;;5012676;28;20239;-55
2022/06/20 04:41:37;;;;;;;2.28;1.88;;;14.60;62.50;;;;;;5012675;28;20200;-54
2022/06/20 04:44:14;;;;;;;2.05;1.85;;;14.60;62.40;;;;;;5012718;28;20232;-55
2022/06/20 04:46:52;;;;;;;3.05;2.00;;;14.60;62.40;;;;;;5012378;28;20188;-54
2022/06/20 04:49:22;;;;;;;2.58;2.10;;;14.60;62.30;;;;;;5012153;28;20581;-55
2022/06/20 04:51:55;;;;;;;2.45;2.10;;;14.60;62.30;;;;;;5012434;28;20208;-55
2022/06/20 04:54:26;;;;;;;2.53;1.80;;;14.60;62.30;;;;;;5011855;28;20197;-55
2022/06/20 04:56:58;;;;;;;2.63;2.00;;;14.60;62.30;;;;;;5011727;28;20193;-55
2022/06/20 04:59:33;;;;;;;2.80;2.13;;;14.50;62.20;;;;;;4995473;28;20228;-54
2022/06/20 05:02:09;;;;;;;3.15;2.55;;;14.60;62.30;;;;;;5012202;28;20808;-53
2022/06/20 05:04:42;;;;;;;2.63;1.98;;;14.60;62.20;;;;;;5011806;28;20200;-56
2022/06/20 05:10:19;;;;;;;2.65;1.90;;;14.60;62.20;;;;;;5011414;28;20221;-54
2022/06/20 05:12:56;;;;;;;2.38;1.90;;;14.60;62.10;;;;;;5011904;28;20197;-54
2022/06/20 05:15:34;;;;;;;2.20;1.95;;;14.60;62.00;;;;;;5012150;28;20733;-54
2022/06/20 05:18:16;;;;;;;2.10;1.90;;;14.60;62.00;;;;;;5011436;28;20311;-56
2022/06/20 05:20:48;;;;;;;2.92;2.22;;;14.60;62.00;;;;;;5012268;28;20271;-56
2022/06/20 05:23:28;;;;;;;2.90;2.20;;;14.50;61.90;;;;;;5011657;28;20203;-54
2022/06/20 05:26:00;;;;;;;2.10;1.90;;;14.50;61.90;;;;;;5012371;28;20203;-56
2022/06/20 05:28:34;;;;;;;2.42;2.17;;;14.50;61.80;;;;;;4992828;28;20221;-54
2022/06/20 05:31:06;;;;;;;2.05;1.77;;;14.50;61.80;;;;;;4992182;28;20239;-55
2022/06/20 05:33:44;;;;;;;1.98;1.75;;;14.50;61.80;;;;;;5010551;28;20661;-55
2022/06/20 05:36:21;;;;;;;2.35;1.90;;;14.50;61.90;;;;;;5010922;28;20192;-55
2022/06/20 05:39:00;;;;;;;2.40;2.13;;;14.50;61.90;;;;;;5010979;28;20220;-54
2022/06/20 05:41:31;;;;;;;2.35;1.95;;;14.50;61.90;;;;;;5011586;28;20699;-53
2022/06/20 05:44:02;;;;;;;2.40;2.03;;;14.50;61.90;;;;;;5012045;28;20204;-54
2022/06/20 05:46:39;;;;;;;2.17;1.90;;;14.50;61.90;;;;;;5011038;28;20193;-54
2022/06/20 05:49:14;;;;;;;4.93;2.42;;;14.50;61.90;;;;;;5011349;28;20216;-54
2022/06/20 05:51:46;;;;;;;2.75;1.92;;;14.50;61.90;;;;;;5010983;28;20199;-56
2022/06/20 05:54:22;;;;;;;2.30;2.05;;;14.50;61.90;;;;;;5010954;28;20196;-55
2022/06/20 05:56:57;;;;;;;2.15;1.95;;;14.50;61.90;;;;;;5010657;28;20254;-53
2022/06/20 05:59:44;;;;;;;2.75;2.20;;;14.50;61.80;;;;;;5010157;28;20216;-56
2022/06/20 06:02:23;;;;;;;2.78;1.85;;;14.50;61.80;;;;;;5010100;28;20626;-55
2022/06/20 06:05:01;;;;;;;2.72;1.85;;;14.50;61.80;;;;;;5011397;28;20193;-55
2022/06/20 06:07:37;;;;;;;2.78;1.70;;;14.50;61.80;;;;;;5010597;28;20231;-56
2022/06/20 06:10:29;;;;;;;3.13;1.70;;;14.50;61.80;;;;;;5010940;28;20227;-55
2022/06/20 06:13:08;;;;;;;2.60;2.05;;;14.40;61.70;;;;;;5010346;28;20193;-55
2022/06/20 06:16:46;;;;;;;2.47;2.08;;;14.50;61.80;;;;;;5009762;28;20673;-54
2022/06/20 06:18:39;;;;;;;3.03;2.03;;;14.50;61.80;;;;;;5010740;28;20212;-54
2022/06/20 06:21:10;;;;;;;2.22;1.80;;;14.40;61.80;;;;;;5010261;28;20220;-58
2022/06/20 06:23:48;;;;;;;1.90;1.75;;;14.40;62.60;;;;;;5010242;28;20200;-54
2022/06/20 06:26:21;;;;;;;2.47;1.90;;;14.40;61.90;;;;;;5010686;28;20582;-54
2022/06/20 06:29:01;;;;;;;2.35;2.13;;;14.40;61.90;;;;;;4992663;28;20221;-56
2022/06/20 06:31:46;;;;;;;2.13;1.92;;;14.40;61.90;;;;;;5010723;28;20754;-57
2022/06/20 06:34:25;;;;;;;2.30;2.00;;;14.40;61.90;;;;;;5010689;28;20219;-54
2022/06/20 06:37:00;;;;;;;2.90;1.85;;;14.40;61.90;;;;;;5010601;28;20204;-55
2022/06/20 06:39:34;;;;;;;1.95;1.85;;;14.40;61.90;;;;;;5010301;28;20212;-55
2022/06/20 06:42:18;;;;;;;1.80;1.70;;;14.40;61.90;;;;;;5010463;28;20192;-55
2022/06/20 06:44:51;;;;;;;2.30;2.10;;;14.40;62.00;;;;;;5010986;28;20193;-57
2022/06/20 06:47:25;;;;;;;3.15;2.20;;;14.40;62.00;;;;;;5009233;28;20193;-58
2022/06/20 06:50:03;;;;;;;2.10;1.90;;;14.40;62.20;;;;;;5010159;28;20307;-58
2022/06/20 06:52:39;;;;;;;2.38;2.05;;;14.40;62.40;;;;;;5010568;28;20204;-58
2022/06/20 06:55:24;;;;;;;2.20;2.00;;;14.40;62.40;;;;;;5010811;28;20386;-58
2022/06/20 06:58:02;;;;;;;2.47;2.22;;;14.40;62.30;;;;;;5009871;28;20335;-57
2022/06/20 07:00:37;;;;;;;2.35;2.10;;;14.40;62.20;;;;;;5010749;28;20236;-58
2022/06/20 07:03:15;;;;;;;2.95;2.13;;;14.40;62.20;;;;;;5009655;28;20200;-59
2022/06/20 07:05:51;;;;;;;2.25;2.00;;;14.40;62.20;;;;;;5011071;28;20196;-56
2022/06/20 07:08:26;;;;;;;2.25;2.00;;;14.30;62.20;;;;;;5010607;28;20294;-57
2022/06/20 07:11:02;;;;;;;2.75;2.10;;;14.30;62.20;;;;;;5010566;28;20196;-57
2022/06/20 07:13:45;;;;;;;2.85;2.40;;;14.30;62.10;;;;;;5009471;28;20213;-58
2022/06/20 07:16:21;;;;;;;2.30;2.10;;;14.30;62.20;;;;;;5010196;28;20234;-58
2022/06/20 07:18:54;;;;;;;2.78;2.30;;;14.30;62.10;;;;;;5010153;28;20208;-58
2022/06/20 07:21:26;;;;;;;2.45;2.25;;;14.30;62.10;;;;;;5009718;28;20225;-58
2022/06/20 07:24:01;;;;;;;3.30;2.75;;;14.30;62.10;;;;;;5009712;28;20649;-58
2022/06/20 07:26:36;;;;;;;3.03;2.63;;;14.30;62.00;;;;;;5010199;28;20203;-58
2022/06/20 07:29:14;;;;;;;6.03;3.75;;;14.30;62.00;;;;;;5011135;28;20213;-58
2022/06/20 07:31:47;;;;;;;5.85;4.03;;;14.30;61.90;;;;;;5010154;28;20207;-58
2022/06/20 07:34:24;;;;;;;8.27;4.35;;;14.30;61.90;;;;;;4994335;28;20198;-57
2022/06/20 07:36:58;;;;;;;5.65;4.13;;;14.30;61.80;;;;;;5000882;28;20205;-58
2022/06/20 07:39:33;;;;;;;5.65;4.57;;;14.30;61.90;;;;;;4994539;28;20217;-57
2022/06/20 07:42:09;;;;;;;8.05;4.97;;;14.30;61.80;;;;;;4997868;28;20760;-58
2022/06/20 07:44:45;;;;;;;8.02;5.53;;;14.20;61.70;;;;;;5013889;28;20197;-59
2022/06/20 07:47:20;;;;;;;6.28;4.63;;;14.20;61.70;;;;;;5014548;28;20561;-58
2022/06/20 07:49:55;;;;;;;10.05;5.50;;;14.20;61.70;;;;;;5014244;28;20216;-57
2022/06/20 07:52:31;;;;;;;7.43;5.03;;;14.20;61.70;;;;;;5014263;28;20196;-58
2022/06/20 07:55:06;;;;;;;10.57;5.65;;;14.20;61.60;;;;;;5014171;28;20204;-58
2022/06/20 07:57:42;;;;;;;8.43;5.32;;;14.20;61.70;;;;;;5014137;28;20211;-57
2022/06/20 08:00:19;;;;;;;10.40;5.40;;;14.20;61.70;;;;;;5013493;28;20217;-58
2022/06/20 08:02:52;;;;;;;8.27;5.47;;;14.20;61.70;;;;;;5014074;28;20196;-57
2022/06/20 08:05:27;;;;;;;9.23;5.35;;;14.20;61.70;;;;;;5013964;28;20197;-58
2022/06/20 08:08:06;;;;;;;8.60;4.97;;;14.20;61.70;;;;;;5014032;28;20211;-58
2022/06/20 08:10:41;;;;;;;7.38;5.32;;;14.20;61.70;;;;;;5013334;28;20221;-57
2022/06/20 08:13:18;;;;;;;7.70;5.43;;;14.20;61.60;;;;;;5013149;28;20200;-58
2022/06/20 08:15:55;;;;;;;9.48;5.13;;;14.20;61.60;;;;;;5013456;28;20577;-58
2022/06/20 08:18:27;;;;;;;7.90;5.25;;;14.20;61.60;;;;;;5013484;28;20236;-58
2022/06/20 08:21:02;;;;;;;7.30;5.30;;;14.20;61.60;;;;;;5013589;28;20227;-58
2022/06/20 08:23:39;;;;;;;8.27;5.45;;;14.20;61.60;;;;;;5013835;28;20200;-57
2022/06/20 08:26:15;;;;;;;6.72;5.53;;;14.20;61.60;;;;;;5013476;28;20197;-58
2022/06/20 08:28:51;;;;;;;7.55;5.70;;;14.10;61.50;;;;;;5013794;28;20212;-58
2022/06/20 08:31:27;;;;;;;8.30;6.20;;;14.10;61.60;;;;;;5012831;28;20200;-57
2022/06/20 08:34:03;;;;;;;8.55;6.22;;;14.20;61.60;;;;;;5013288;28;20569;-57
2022/06/20 08:36:39;;;;;;;9.75;5.82;;;14.10;61.60;;;;;;5013439;28;20211;-59
2022/06/20 08:39:15;;;;;;;9.80;5.78;;;14.10;61.60;;;;;;5013152;28;20574;-58
2022/06/20 08:42:05;;;;;;;8.52;5.35;;;14.10;61.60;;;;;;5013257;28;20228;-59
2022/06/20 08:45:01;;;;;;;7.40;5.50;;;14.10;61.70;;;;;;5012712;28;20196;-58
2022/06/20 08:48:03;;;;;;;8.02;6.03;;;14.10;61.60;;;;;;4993646;28;20649;-58
2022/06/20 08:51:01;;;;;;;7.40;5.63;;;14.10;61.60;;;;;;5000721;28;20219;-56
2022/06/20 08:54:30;;;;;;;15.73;9.18;;;14.10;61.20;;;;;;5013267;28;20205;-56
2022/06/20 08:57:08;;;;;;;13.77;9.05;;;14.10;61.80;;;;;;5013382;28;20205;-59
2022/06/20 09:00:00;;;;;;;9.82;7.20;;;14.10;62.10;;;;;;5013332;28;20688;-56
2022/06/20 09:02:57;;;;;;;9.43;7.20;;;14.10;62.10;;;;;;5003848;28;20236;-58
2022/06/20 09:05:50;;;;;;;9.27;6.68;;;14.00;61.90;;;;;;4992357;28;20558;-57
2022/06/20 09:08:40;;;;;;;11.40;7.13;;;14.00;61.80;;;;;;5012209;28;20193;-57
2022/06/20 09:11:28;;;;;;;9.70;6.57;;;14.00;61.70;;;;;;5012153;28;20204;-55
2022/06/20 09:14:33;;;;;;;9.98;7.47;;;14.00;61.70;;;;;;5011961;28;20543;-55
2022/06/20 09:17:22;;;;;;;8.32;6.88;;;14.00;61.70;;;;;;5011744;28;20204;-57
2022/06/20 09:20:17;;;;;;;9.55;7.30;;;14.00;61.60;;;;;;5004295;28;20576;-55
2022/06/20 09:23:09;;;;;;;10.73;7.32;;;14.00;61.70;;;;;;5008842;28;20200;-56
2022/06/20 09:25:50;;;;;;;9.43;7.38;;;14.00;61.70;;;;;;4992772;28;20230;-54
2022/06/20 09:28:48;;;;;;;8.48;6.55;;;14.00;61.70;;;;;;4992357;28;20209;-58
2022/06/20 09:31:49;;;;;;;11.02;7.05;;;14.00;61.80;;;;;;4984225;28;20630;-57
2022/06/20 09:34:51;;;;;;;11.30;7.18;;;14.00;61.70;;;;;;5011753;28;20203;-56
2022/06/20 09:37:44;;;;;;;10.05;6.80;;;14.00;61.70;;;;;;5001055;28;20426;-57
2022/06/20 09:40:27;;;;;;;8.93;7.18;;;14.00;61.70;;;;;;5010782;28;20415;-56
2022/06/20 09:43:11;;;;;;;9.95;6.47;;;14.00;61.70;;;;;;5011112;28;20223;-57
2022/06/20 09:45:47;;;;;;;7.82;6.65;;;14.00;61.70;;;;;;5011481;28;20208;-57
2022/06/20 09:48:24;;;;;;;9.10;6.55;;;14.00;61.70;;;;;;5011950;28;20196;-56
2022/06/20 09:51:05;;;;;;;9.65;6.63;;;14.00;61.70;;;;;;5011196;28;20196;-58
2022/06/20 09:54:01;;;;;;;10.52;6.72;;;14.00;61.70;;;;;;4992138;28;20201;-57
2022/06/20 09:56:41;;;;;;;8.52;6.63;;;14.00;61.70;;;;;;4998925;28;20193;-57
2022/06/20 09:59:19;;;;;;;8.73;5.97;;;13.90;61.60;;;;;;5007251;28;20212;-57
2022/06/20 10:01:59;;;;;;;8.10;6.22;;;14.00;61.70;;;;;;5006886;28;20589;-58
2022/06/20 10:04:38;;;;;;;9.77;6.00;;;13.90;61.60;;;;;;5011111;28;20195;-57
2022/06/20 10:07:17;;;;;;;7.53;5.85;;;13.90;61.60;;;;;;5010948;28;20196;-59
2022/06/20 10:09:55;;;;;;;8.63;6.20;;;13.90;61.60;;;;;;5011135;28;20236;-57
2022/06/20 10:12:41;;;;;;;7.28;6.03;;;13.90;61.70;;;;;;5010932;28;20196;-58
2022/06/20 10:15:20;;;;;;;7.63;6.38;;;13.90;61.70;;;;;;5010827;28;20219;-57
2022/06/20 10:17:59;;;;;;;8.57;6.50;;;13.90;61.70;;;;;;5010864;28;20193;-59
2022/06/20 10:20:36;;;;;;;8.38;5.90;;;13.90;61.70;;;;;;5011090;28;20267;-57
2022/06/20 10:23:24;;;;;;;7.05;5.95;;;13.90;61.70;;;;;;5004442;28;20232;-56
2022/06/20 10:26:19;;;;;;;8.73;6.32;;;13.90;61.60;;;;;;5008765;28;20197;-57
2022/06/20 10:28:52;;;;;;;8.63;5.38;;;13.90;61.50;;;;;;5007073;28;20223;-55
2022/06/20 10:31:36;;;;;;;7.82;5.78;;;13.90;61.50;;;;;;5011201;28;20193;-57
2022/06/20 10:34:11;;;;;;;6.22;5.63;;;13.90;62.30;;;;;;5010214;28;20197;-57
2022/06/20 10:36:52;;;;;;;7.53;5.45;;;13.90;61.50;;;;;;5010649;28;20223;-55
2022/06/20 10:39:37;;;;;;;7.53;5.45;;;13.90;61.50;;;;;;5010646;28;20247;-57
2022/06/20 10:42:32;;;;;;;6.90;5.38;;;13.80;61.40;;;;;;5009650;28;20571;-57
2022/06/20 10:45:33;;;;;;;7.53;5.50;;;13.80;61.40;;;;;;5010156;28;20201;-58
2022/06/20 10:48:39;;;;;;;9.82;5.85;;;13.80;61.40;;;;;;5010419;28;20193;-57
2022/06/20 10:51:19;;;;;;;6.03;5.05;;;13.80;61.40;;;;;;5010714;28;20561;-54
2022/06/20 10:54:02;;;;;;;8.43;5.78;;;13.80;61.40;;;;;;4991381;28;20208;-57
2022/06/20 10:56:40;;;;;;;6.38;4.97;;;13.80;61.50;;;;;;4999545;28;20196;-58
2022/06/20 10:59:33;;;;;;;6.43;5.57;;;13.90;61.60;;;;;;5010910;28;20318;-57
2022/06/20 11:02:19;;;;;;;6.03;5.28;;;13.80;61.60;;;;;;5010558;28;20227;-57
2022/06/20 11:05:10;;;;;;;6.97;5.22;;;13.80;61.50;;;;;;5010895;28;20223;-57
2022/06/20 11:07:49;;;;;;;6.78;5.20;;;13.80;61.50;;;;;;5011693;28;20197;-56
2022/06/20 11:10:35;;;;;;;6.55;5.35;;;13.80;61.50;;;;;;5014673;28;20275;-58
2022/06/20 11:13:17;;;;;;;6.25;5.22;;;13.90;61.60;;;;;;5013682;28;20204;-58
2022/06/20 11:15:56;;;;;;;7.68;5.10;;;13.80;61.40;;;;;;5014845;28;20212;-58
2022/06/20 11:18:52;;;;;;;6.28;4.90;;;13.80;61.40;;;;;;5013917;28;20276;-58
2022/06/20 11:21:34;;;;;;;6.13;4.60;;;13.80;61.50;;;;;;5013992;28;20228;-58
2022/06/20 11:24:26;;;;;;;6.75;4.90;;;13.80;61.50;;;;;;5008034;28;20657;-58
2022/06/20 11:27:06;;;;;;;7.07;5.32;;;13.80;61.50;;;;;;5014329;28;20209;-58
2022/06/20 11:29:56;;;;;;;6.55;5.40;;;13.80;61.50;;;;;;5014466;28;20216;-58
2022/06/20 11:32:38;;;;;;;6.35;4.75;;;13.80;61.50;;;;;;5013630;28;20193;-58
2022/06/20 11:35:37;;;;;;;5.97;4.68;;;13.80;61.50;;;;;;5012091;28;20211;-58
2022/06/20 11:38:38;;;;;;;5.82;4.40;;;13.80;61.50;;;;;;5012001;28;20208;-58
2022/06/20 11:41:13;;;;;;;6.35;5.45;;;13.80;61.60;;;;;;5008111;28;20197;-58
2022/06/20 11:44:26;;;;;;;5.72;5.10;;;13.80;61.60;;;;;;5013196;28;20204;-57
2022/06/20 11:47:46;;;;;;;6.75;4.60;;;13.80;61.60;;;;;;5012624;28;20197;-59
2022/06/20 11:50:37;;;;;;;6.53;4.78;;;13.80;61.60;;;;;;4952994;29;20309;-59
2022/06/20 11:53:39;;;;;;;5.20;4.70;;;13.80;61.50;;;;;;4951493;29;20225;-59
2022/06/20 11:56:20;;;;;;;7.45;4.88;;;13.80;61.60;;;;;;5011002;28;20196;-59
2022/06/20 11:59:09;;;;;;;6.40;4.70;;;13.80;61.50;;;;;;5011737;28;20221;-59
2022/06/20 12:01:49;;;;;;;6.43;4.38;;;13.80;61.60;;;;;;5011876;28;20223;-59
2022/06/20 12:04:27;;;;;;;6.00;4.20;;;13.80;61.50;;;;;;5012232;28;20197;-59
2022/06/20 12:07:06;;;;;;;6.15;4.35;;;13.80;61.50;;;;;;5012085;28;20608;-58
2022/06/20 12:09:42;;;;;;;5.35;4.47;;;13.80;61.60;;;;;;5012253;28;20226;-58
2022/06/20 12:12:33;;;;;;;6.38;4.82;;;13.80;61.50;;;;;;5012518;28;20208;-59
2022/06/20 12:15:37;;;;;;;5.60;4.93;;;13.80;61.50;;;;;;5012329;28;20201;-58
2022/06/20 12:18:33;;;;;;;5.65;4.00;;;13.80;61.60;;;;;;4992588;28;20201;-58
2022/06/20 12:24:02;;;;;;;5.20;4.00;;;13.80;61.50;;;;;;4992554;28;20558;-60
2022/06/20 12:26:39;;;;;;;5.55;4.40;;;13.80;61.50;;;;;;4992422;28;20288;-57
2022/06/20 12:29:17;;;;;;;5.03;4.22;;;13.80;61.60;;;;;;4993136;28;20221;-58
2022/06/20 12:31:50;;;;;;;5.57;4.40;;;13.80;61.60;;;;;;5002029;28;20208;-59
2022/06/20 12:34:36;;;;;;;4.75;4.22;;;13.80;61.60;;;;;;5011725;28;20203;-59
2022/06/20 12:37:18;;;;;;;5.35;4.20;;;13.80;61.60;;;;;;5012093;28;20216;-58
2022/06/20 12:39:55;;;;;;;5.43;4.20;;;13.80;61.50;;;;;;5012016;28;20223;-59
2022/06/20 12:42:32;;;;;;;5.25;4.25;;;13.80;61.50;;;;;;5011861;28;20228;-59
2022/06/20 12:45:25;;;;;;;4.70;4.20;;;13.80;61.50;;;;;;5011600;28;20661;-58
2022/06/20 12:48:22;;;;;;;4.68;4.13;;;13.80;61.50;;;;;;5010845;28;20691;-59
2022/06/20 12:50:58;;;;;;;5.80;4.22;;;13.80;61.40;;;;;;5011447;28;20217;-58
2022/06/20 12:53:58;;;;;;;5.22;4.45;;;13.80;61.50;;;;;;5011661;28;20207;-58
2022/06/20 12:56:42;;;;;;;5.65;4.47;;;13.80;61.40;;;;;;5011141;28;20574;-59
2022/06/20 12:59:40;;;;;;;5.30;4.25;;;13.80;61.40;;;;;;5011243;28;20252;-59
2022/06/20 13:02:18;;;;;;;4.50;4.10;;;13.80;61.40;;;;;;5010833;28;20311;-58
2022/06/20 13:05:20;;;;;;;5.03;3.95;;;13.80;61.40;;;;;;5011232;28;20799;-58
2022/06/20 13:08:20;;;;;;;5.07;4.03;;;13.80;61.50;;;;;;5009501;28;20204;-58
2022/06/20 13:11:04;;;;;;;5.70;4.25;;;13.80;61.40;;;;;;5002962;28;20897;-58
2022/06/20 13:13:57;;;;;;;4.80;3.60;;;13.70;61.40;;;;;;5011457;28;20560;-58
2022/06/20 13:16:35;;;;;;;4.78;4.15;;;13.70;61.40;;;;;;5010768;28;20205;-59
2022/06/20 13:19:24;;;;;;;4.95;4.30;;;13.70;61.40;;;;;;5011067;28;20566;-59
2022/06/20 13:22:00;;;;;;;5.65;4.05;;;13.70;61.40;;;;;;5011037;28;20225;-59
2022/06/20 13:24:51;;;;;;;4.78;3.90;;;13.70;61.40;;;;;;5011004;28;20204;-57
2022/06/20 13:27:38;;;;;;;5.93;3.70;;;13.70;61.40;;;;;;5010974;28;20256;-58
2022/06/20 13:30:21;;;;;;;6.00;4.28;;;13.80;61.40;;;;;;5010395;28;20260;-57
2022/06/20 13:33:01;;;;;;;4.57;3.85;;;13.80;61.40;;;;;;5010953;28;20552;-59
2022/06/20 13:35:38;;;;;;;5.00;4.10;;;13.70;61.30;;;;;;5010705;28;20880;-58
2022/06/20 13:38:20;;;;;;;5.57;4.25;;;13.70;61.30;;;;;;5010539;28;20208;-59
2022/06/20 13:40:56;;;;;;;6.70;4.10;;;13.70;61.30;;;;;;5010130;28;20209;-59
2022/06/20 13:43:51;;;;;;;5.10;4.22;;;13.70;61.30;;;;;;5010366;28;20224;-57
2022/06/20 13:46:27;;;;;;;4.40;3.97;;;13.70;61.30;;;;;;5010488;28;20208;-57
2022/06/20 13:49:06;;;;;;;4.38;3.60;;;13.70;61.20;;;;;;5010192;28;20227;-58
2022/06/20 13:51:43;;;;;;;5.03;4.07;;;13.70;61.30;;;;;;5010742;28;20203;-58
2022/06/20 13:54:22;;;;;;;4.40;3.80;;;13.70;61.30;;;;;;5010690;28;20257;-58
2022/06/20 13:57:11;;;;;;;4.47;3.80;;;13.70;61.30;;;;;;5010875;28;20279;-58
2022/06/20 13:59:57;;;;;;;3.88;3.50;;;13.70;61.30;;;;;;5010869;28;20220;-57
2022/06/20 14:02:39;;;;;;;4.10;3.40;;;13.70;61.30;;;;;;5010124;28;20235;-58
2022/06/20 14:05:19;;;;;;;4.13;3.40;;;13.70;61.30;;;;;;5010263;28;20248;-59